sensor_id;sensor_type;location;lat;lon;timestamp;pressure;altitude;pressure_sealevel;temperature;humidity
9281;BME280;4679;47.966;7.958;2023-04-06T06:23:42;97363.97;;;0.48;65.07
9281;BME280;4679;47.966;7.958;2023-04-06T06:25:44;97369.03;;;0.49;65.30
9281;BME280;4679;47.966;7.958;2023-04-06T06:27:46;97364.75;;;0.56;65.06
9281;BME280;4679;47.966;7.958;2023-04-06T06:29:48;97364.66;;;0.64;65.27
9281;BME280;4679;47.966;7.958;2023-04-06T06:31:50;97358.75;;;0.70;65.17
9281;BME280;4679;47.966;7.958;2023-04-06T06:33:51;97352.81;;;0.77;64.88
9281;BME280;4679;47.966;7.958;2023-04-06T06:35:53;97368.44;;;0.85;64.91
9281;BME280;4679;47.966;7.958;2023-04-06T06:37:55;97361.88;;;0.89;65.16
9281;BME280;4679;47.966;7.958;2023-04-06T06:39:58;97356.22;;;1.00;64.48
9281;BME280;4679;47.966;7.958;2023-04-06T06:42:00;97353.53;;;1.08;64.62
9281;BME280;4679;47.966;7.958;2023-04-06T06:44:02;97355.72;;;1.19;64.50
9281;BME280;4679;47.966;7.958;2023-04-06T06:46:04;97349.41;;;1.28;63.99
9281;BME280;4679;47.966;7.958;2023-04-06T06:48:06;97350.97;;;1.37;64.55
9281;BME280;4679;47.966;7.958;2023-04-06T06:50:08;97355.56;;;1.50;63.90
9281;BME280;4679;47.966;7.958;2023-04-06T06:52:10;97360.50;;;1.60;63.53
9281;BME280;4679;47.966;7.958;2023-04-06T06:54:12;97356.63;;;1.70;63.47
9281;BME280;4679;47.966;7.958;2023-04-06T06:56:15;97353.09;;;1.78;63.78
9281;BME280;4679;47.966;7.958;2023-04-06T06:58:17;97350.38;;;1.86;63.87
9281;BME280;4679;47.966;7.958;2023-04-06T07:00:20;97350.47;;;1.93;63.20
9281;BME280;4679;47.966;7.958;2023-04-06T07:02:22;97351.97;;;2.02;62.93
9281;BME280;4679;47.966;7.958;2023-04-06T07:04:23;97349.72;;;2.14;63.39
9281;BME280;4679;47.966;7.958;2023-04-06T07:06:25;97345.59;;;2.26;63.18
9281;BME280;4679;47.966;7.958;2023-04-06T07:08:27;97349.53;;;2.36;63.08
9281;BME280;4679;47.966;7.958;2023-04-06T07:10:29;97347.84;;;2.50;62.58
9281;BME280;4679;47.966;7.958;2023-04-06T07:12:32;97353.22;;;2.63;63.09
9281;BME280;4679;47.966;7.958;2023-04-06T07:14:33;97349.53;;;2.79;62.23
9281;BME280;4679;47.966;7.958;2023-04-06T07:16:37;97349.44;;;2.94;61.77
9281;BME280;4679;47.966;7.958;2023-04-06T07:18:38;97359.66;;;3.10;62.26
9281;BME280;4679;47.966;7.958;2023-04-06T07:20:40;97353.31;;;3.26;61.89
9281;BME280;4679;47.966;7.958;2023-04-06T07:22:43;97341.72;;;3.41;61.71
9281;BME280;4679;47.966;7.958;2023-04-06T07:24:45;97347.22;;;3.53;61.38
9281;BME280;4679;47.966;7.958;2023-04-06T07:26:47;97335.00;;;3.67;60.92
9281;BME280;4679;47.966;7.958;2023-04-06T07:28:50;97338.28;;;3.82;61.21
9281;BME280;4679;47.966;7.958;2023-04-06T07:30:51;97334.94;;;3.95;60.71
9281;BME280;4679;47.966;7.958;2023-04-06T07:32:54;97344.47;;;4.09;60.75
9281;BME280;4679;47.966;7.958;2023-04-06T07:34:56;97336.84;;;4.20;60.44
9281;BME280;4679;47.966;7.958;2023-04-06T07:36:59;97339.09;;;4.37;60.28
9281;BME280;4679;47.966;7.958;2023-04-06T07:39:01;97339.75;;;4.52;60.19
9281;BME280;4679;47.966;7.958;2023-04-06T07:41:02;97337.75;;;4.67;59.78
9281;BME280;4679;47.966;7.958;2023-04-06T07:43:05;97333.72;;;4.84;59.79
9281;BME280;4679;47.966;7.958;2023-04-06T07:45:09;97333.69;;;5.04;58.92
9281;BME280;4679;47.966;7.958;2023-04-06T07:47:11;97335.72;;;5.15;59.16
9281;BME280;4679;47.966;7.958;2023-04-06T07:49:13;97338.16;;;5.30;59.01
9281;BME280;4679;47.966;7.958;2023-04-06T07:51:14;97337.91;;;5.45;58.73
9281;BME280;4679;47.966;7.958;2023-04-06T07:53:17;97333.19;;;5.73;58.18
9281;BME280;4679;47.966;7.958;2023-04-06T07:55:19;97330.31;;;5.94;58.08
9281;BME280;4679;47.966;7.958;2023-04-06T07:57:21;97328.00;;;6.11;58.01
9281;BME280;4679;47.966;7.958;2023-04-06T07:59:23;97331.75;;;6.28;57.71
9281;BME280;4679;47.966;7.958;2023-04-06T08:01:27;97332.06;;;6.45;56.06
9281;BME280;4679;47.966;7.958;2023-04-06T08:03:29;97329.13;;;6.66;56.03
9281;BME280;4679;47.966;7.958;2023-04-06T08:05:31;97330.03;;;6.79;55.40
9281;BME280;4679;47.966;7.958;2023-04-06T08:07:33;97326.91;;;6.88;55.31
9281;BME280;4679;47.966;7.958;2023-04-06T08:09:34;97321.91;;;7.05;55.58
9281;BME280;4679;47.966;7.958;2023-04-06T08:11:36;97325.03;;;7.20;54.56
9281;BME280;4679;47.966;7.958;2023-04-06T08:13:38;97322.72;;;7.30;54.78
9281;BME280;4679;47.966;7.958;2023-04-06T08:15:40;97333.78;;;7.39;54.80
9281;BME280;4679;47.966;7.958;2023-04-06T08:17:43;97324.94;;;7.52;54.20
9281;BME280;4679;47.966;7.958;2023-04-06T08:19:44;97321.94;;;7.66;53.22
9281;BME280;4679;47.966;7.958;2023-04-06T08:21:46;97322.03;;;7.78;53.29
9281;BME280;4679;47.966;7.958;2023-04-06T08:23:48;97325.75;;;7.89;52.66
9281;BME280;4679;47.966;7.958;2023-04-06T08:25:50;97322.22;;;7.95;53.12
9281;BME280;4679;47.966;7.958;2023-04-06T08:27:54;97324.50;;;8.09;52.18
9281;BME280;4679;47.966;7.958;2023-04-06T08:29:56;97318.22;;;8.22;51.74
9281;BME280;4679;47.966;7.958;2023-04-06T08:31:58;97320.72;;;8.35;52.14
9281;BME280;4679;47.966;7.958;2023-04-06T08:34:01;97318.66;;;8.37;51.27
9281;BME280;4679;47.966;7.958;2023-04-06T08:36:10;97330.38;;;8.41;51.09
9281;BME280;4679;47.966;7.958;2023-04-06T08:38:12;97321.16;;;8.62;50.93
9281;BME280;4679;47.966;7.958;2023-04-06T08:40:14;97324.78;;;8.91;50.51
9281;BME280;4679;47.966;7.958;2023-04-06T08:42:19;97319.25;;;8.93;50.36
9281;BME280;4679;47.966;7.958;2023-04-06T08:44:21;97327.56;;;8.85;49.97
9281;BME280;4679;47.966;7.958;2023-04-06T08:46:23;97321.44;;;8.84;49.85
9281;BME280;4679;47.966;7.958;2023-04-06T08:48:29;97319.47;;;8.79;50.10
9281;BME280;4679;47.966;7.958;2023-04-06T08:50:32;97314.44;;;8.90;50.00
9281;BME280;4679;47.966;7.958;2023-04-06T08:52:35;97318.81;;;8.96;49.34
9281;BME280;4679;47.966;7.958;2023-04-06T08:54:38;97318.00;;;8.95;49.47
9281;BME280;4679;47.966;7.958;2023-04-06T08:56:40;97323.78;;;9.15;49.13
9281;BME280;4679;47.966;7.958;2023-04-06T08:58:43;97316.53;;;9.34;48.96
9281;BME280;4679;47.966;7.958;2023-04-06T09:00:45;97321.47;;;9.54;48.23
9281;BME280;4679;47.966;7.958;2023-04-06T09:02:49;97318.50;;;9.62;48.34
9281;BME280;4679;47.966;7.958;2023-04-06T09:04:52;97321.59;;;9.71;48.35
9281;BME280;4679;47.966;7.958;2023-04-06T09:06:56;97316.41;;;9.76;47.34
9281;BME280;4679;47.966;7.958;2023-04-06T09:08:58;97315.56;;;9.87;47.29
9281;BME280;4679;47.966;7.958;2023-04-06T09:11:00;97314.13;;;10.08;47.65
9281;BME280;4679;47.966;7.958;2023-04-06T09:13:03;97312.28;;;10.20;47.70
9281;BME280;4679;47.966;7.958;2023-04-06T09:15:06;97313.69;;;10.39;46.48
9281;BME280;4679;47.966;7.958;2023-04-06T09:17:21;97316.53;;;10.49;46.41
9281;BME280;4679;47.966;7.958;2023-04-06T09:19:23;97319.19;;;10.49;46.57
9281;BME280;4679;47.966;7.958;2023-04-06T09:21:25;97320.41;;;10.58;46.51
9281;BME280;4679;47.966;7.958;2023-04-06T09:23:28;97324.44;;;10.61;45.96
9281;BME280;4679;47.966;7.958;2023-04-06T09:25:30;97326.63;;;10.64;45.70
9281;BME280;4679;47.966;7.958;2023-04-06T09:27:34;97325.50;;;10.77;45.97
9281;BME280;4679;47.966;7.958;2023-04-06T09:29:36;97322.41;;;11.13;45.26
9281;BME280;4679;47.966;7.958;2023-04-06T09:31:38;97322.31;;;11.42;44.80
9281;BME280;4679;47.966;7.958;2023-04-06T09:33:41;97329.03;;;11.66;44.51
9281;BME280;4679;47.966;7.958;2023-04-06T09:35:49;97326.13;;;11.84;44.55
9281;BME280;4679;47.966;7.958;2023-04-06T09:37:52;97333.97;;;11.96;43.87
9281;BME280;4679;47.966;7.958;2023-04-06T09:40:02;97327.97;;;11.84;44.33
9281;BME280;4679;47.966;7.958;2023-04-06T09:42:04;97329.81;;;11.83;44.60
9281;BME280;4679;47.966;7.958;2023-04-06T09:44:08;97322.09;;;12.04;44.01
9281;BME280;4679;47.966;7.958;2023-04-06T09:46:10;97322.22;;;12.14;43.36
9281;BME280;4679;47.966;7.958;2023-04-06T09:48:12;97322.28;;;12.19;43.63
9281;BME280;4679;47.966;7.958;2023-04-06T09:50:14;97316.09;;;12.35;43.22
9281;BME280;4679;47.966;7.958;2023-04-06T09:52:17;97315.84;;;12.37;43.21
9281;BME280;4679;47.966;7.958;2023-04-06T09:54:22;97314.69;;;12.54;43.45
9281;BME280;4679;47.966;7.958;2023-04-06T09:56:28;97315.69;;;12.48;42.45
9281;BME280;4679;47.966;7.958;2023-04-06T09:58:34;97313.38;;;12.57;42.59
9281;BME280;4679;47.966;7.958;2023-04-06T10:00:43;97314.72;;;12.59;42.89
9281;BME280;4679;47.966;7.958;2023-04-06T10:02:50;97316.19;;;12.72;42.62
9281;BME280;4679;47.966;7.958;2023-04-06T10:04:57;97316.16;;;12.67;42.33
9281;BME280;4679;47.966;7.958;2023-04-06T10:07:02;97324.00;;;12.52;42.85
9281;BME280;4679;47.966;7.958;2023-04-06T10:09:07;97312.25;;;12.26;43.16
9281;BME280;4679;47.966;7.958;2023-04-06T10:11:09;97306.31;;;12.19;42.77
9281;BME280;4679;47.966;7.958;2023-04-06T10:13:13;97305.56;;;12.23;42.52
9281;BME280;4679;47.966;7.958;2023-04-06T10:15:15;97311.59;;;12.41;41.76
9281;BME280;4679;47.966;7.958;2023-04-06T10:17:17;97309.72;;;12.36;42.74
9281;BME280;4679;47.966;7.958;2023-04-06T10:19:22;97304.66;;;12.35;42.54
9281;BME280;4679;47.966;7.958;2023-04-06T10:21:27;97308.66;;;12.37;41.49
9281;BME280;4679;47.966;7.958;2023-04-06T10:23:32;97306.13;;;12.25;41.68
9281;BME280;4679;47.966;7.958;2023-04-06T10:25:35;97307.31;;;12.35;41.63
9281;BME280;4679;47.966;7.958;2023-04-06T10:27:38;97305.78;;;12.44;41.85
9281;BME280;4679;47.966;7.958;2023-04-06T10:29:45;97308.50;;;12.49;41.55
9281;BME280;4679;47.966;7.958;2023-04-06T10:31:49;97309.06;;;12.51;41.73
9281;BME280;4679;47.966;7.958;2023-04-06T10:33:53;97306.69;;;12.54;41.38
9281;BME280;4679;47.966;7.958;2023-04-06T10:35:56;97303.13;;;12.71;41.45
9281;BME280;4679;47.966;7.958;2023-04-06T10:38:01;97306.72;;;12.86;41.23
9281;BME280;4679;47.966;7.958;2023-04-06T10:40:05;97307.19;;;12.78;40.86
9281;BME280;4679;47.966;7.958;2023-04-06T10:42:07;97301.25;;;12.71;41.06
9281;BME280;4679;47.966;7.958;2023-04-06T10:44:17;97302.25;;;12.92;41.15
9281;BME280;4679;47.966;7.958;2023-04-06T10:46:26;97304.72;;;12.98;40.75
9281;BME280;4679;47.966;7.958;2023-04-06T10:48:36;97298.66;;;13.08;40.78
9281;BME280;4679;47.966;7.958;2023-04-06T10:51:07;97291.97;;;13.06;40.75
9281;BME280;4679;47.966;7.958;2023-04-06T10:53:09;97287.41;;;13.33;39.85
9281;BME280;4679;47.966;7.958;2023-04-06T10:55:12;97294.13;;;13.41;40.27
9281;BME280;4679;47.966;7.958;2023-04-06T10:57:14;97289.88;;;13.08;40.24
9281;BME280;4679;47.966;7.958;2023-04-06T10:59:19;97294.84;;;12.99;40.06
9281;BME280;4679;47.966;7.958;2023-04-06T11:01:21;97291.78;;;12.80;40.13
9281;BME280;4679;47.966;7.958;2023-04-06T11:05:27;97292.22;;;13.04;40.03
9281;BME280;4679;47.966;7.958;2023-04-06T11:07:30;97291.13;;;13.32;39.48
9281;BME280;4679;47.966;7.958;2023-04-06T11:09:32;97289.63;;;13.46;39.53
9281;BME280;4679;47.966;7.958;2023-04-06T11:11:38;97285.72;;;13.59;39.46
9281;BME280;4679;47.966;7.958;2023-04-06T11:13:41;97284.53;;;13.45;39.43
9281;BME280;4679;47.966;7.958;2023-04-06T11:15:43;97278.69;;;13.43;39.29
9281;BME280;4679;47.966;7.958;2023-04-06T11:17:45;97283.56;;;13.61;39.27
9281;BME280;4679;47.966;7.958;2023-04-06T11:19:47;97286.94;;;13.93;38.79
9281;BME280;4679;47.966;7.958;2023-04-06T11:21:49;97284.84;;;14.00;38.54
9281;BME280;4679;47.966;7.958;2023-04-06T11:23:52;97285.06;;;13.94;38.55
9281;BME280;4679;47.966;7.958;2023-04-06T11:26:09;97282.94;;;13.96;38.36
9281;BME280;4679;47.966;7.958;2023-04-06T11:28:11;97283.31;;;14.20;38.10
9281;BME280;4679;47.966;7.958;2023-04-06T11:30:13;97277.94;;;14.15;37.96
9281;BME280;4679;47.966;7.958;2023-04-06T11:32:21;97277.06;;;13.89;37.95
9281;BME280;4679;47.966;7.958;2023-04-06T11:34:24;97273.88;;;13.97;37.43
9281;BME280;4679;47.966;7.958;2023-04-06T11:36:28;97271.97;;;13.92;37.86
9281;BME280;4679;47.966;7.958;2023-04-06T11:38:30;97274.25;;;13.63;37.30
9281;BME280;4679;47.966;7.958;2023-04-06T11:40:33;97275.81;;;13.54;37.68
9281;BME280;4679;47.966;7.958;2023-04-06T11:42:35;97275.09;;;13.69;37.18
9281;BME280;4679;47.966;7.958;2023-04-06T11:44:43;97264.16;;;13.76;36.77
9281;BME280;4679;47.966;7.958;2023-04-06T11:46:51;97269.84;;;13.84;36.34
9281;BME280;4679;47.966;7.958;2023-04-06T11:48:58;97268.56;;;14.07;36.30
9281;BME280;4679;47.966;7.958;2023-04-06T11:51:01;97258.69;;;14.07;36.21
9281;BME280;4679;47.966;7.958;2023-04-06T11:53:05;97260.31;;;14.03;36.03
9281;BME280;4679;47.966;7.958;2023-04-06T11:55:11;97256.03;;;14.02;35.96
9281;BME280;4679;47.966;7.958;2023-04-06T11:57:16;97263.28;;;14.22;35.62
9281;BME280;4679;47.966;7.958;2023-04-06T11:59:18;97261.09;;;14.09;35.46
9281;BME280;4679;47.966;7.958;2023-04-06T12:01:20;97249.59;;;13.98;35.57
9281;BME280;4679;47.966;7.958;2023-04-06T12:03:22;97254.44;;;14.12;35.20
9281;BME280;4679;47.966;7.958;2023-04-06T12:05:23;97260.34;;;14.19;35.27
9281;BME280;4679;47.966;7.958;2023-04-06T12:07:25;97252.03;;;14.05;35.34
9281;BME280;4679;47.966;7.958;2023-04-06T12:09:27;97249.03;;;13.91;35.51
9281;BME280;4679;47.966;7.958;2023-04-06T12:11:29;97261.88;;;13.99;35.15
9281;BME280;4679;47.966;7.958;2023-04-06T12:13:32;97255.19;;;13.97;35.17
9281;BME280;4679;47.966;7.958;2023-04-06T12:15:34;97257.16;;;14.27;34.81
9281;BME280;4679;47.966;7.958;2023-04-06T12:17:36;97259.03;;;14.31;34.66
9281;BME280;4679;47.966;7.958;2023-04-06T12:19:38;97255.00;;;14.24;34.70
9281;BME280;4679;47.966;7.958;2023-04-06T12:21:39;97258.97;;;14.11;34.76
9281;BME280;4679;47.966;7.958;2023-04-06T12:23:42;97257.06;;;13.96;34.64
9281;BME280;4679;47.966;7.958;2023-04-06T12:25:45;97255.47;;;14.05;34.54
9281;BME280;4679;47.966;7.958;2023-04-06T12:27:47;97247.41;;;13.80;34.53
9281;BME280;4679;47.966;7.958;2023-04-06T12:29:50;97245.47;;;13.65;34.72
9281;BME280;4679;47.966;7.958;2023-04-06T12:31:52;97248.34;;;13.54;34.33
9281;BME280;4679;47.966;7.958;2023-04-06T12:33:54;97246.72;;;13.48;34.46
9281;BME280;4679;47.966;7.958;2023-04-06T12:35:55;97238.16;;;13.41;34.32
9281;BME280;4679;47.966;7.958;2023-04-06T12:37:57;97243.63;;;13.76;34.25
9281;BME280;4679;47.966;7.958;2023-04-06T12:39:59;97242.63;;;13.87;34.04
9281;BME280;4679;47.966;7.958;2023-04-06T12:42:01;97246.69;;;13.43;34.21
9281;BME280;4679;47.966;7.958;2023-04-06T12:44:03;97240.78;;;13.35;34.01
9281;BME280;4679;47.966;7.958;2023-04-06T12:46:07;97238.28;;;13.19;34.70
9281;BME280;4679;47.966;7.958;2023-04-06T12:48:09;97236.66;;;13.18;34.69
9281;BME280;4679;47.966;7.958;2023-04-06T12:50:11;97242.56;;;13.20;34.36
9281;BME280;4679;47.966;7.958;2023-04-06T12:52:12;97239.09;;;13.19;34.48
9281;BME280;4679;47.966;7.958;2023-04-06T12:54:14;97238.16;;;13.41;34.17
9281;BME280;4679;47.966;7.958;2023-04-06T12:56:17;97236.03;;;13.43;33.63
9281;BME280;4679;47.966;7.958;2023-04-06T12:58:19;97235.16;;;13.32;34.04
9281;BME280;4679;47.966;7.958;2023-04-06T13:00:21;97240.38;;;13.59;33.90
9281;BME280;4679;47.966;7.958;2023-04-06T13:02:24;97231.59;;;13.63;33.79
9281;BME280;4679;47.966;7.958;2023-04-06T13:04:27;97237.50;;;13.70;33.92
9281;BME280;4679;47.966;7.958;2023-04-06T13:06:29;97242.06;;;13.80;33.94
9281;BME280;4679;47.966;7.958;2023-04-06T13:08:31;97233.78;;;13.71;33.86
9281;BME280;4679;47.966;7.958;2023-04-06T13:10:33;97238.34;;;13.81;33.83
9281;BME280;4679;47.966;7.958;2023-04-06T13:12:35;97237.28;;;13.82;33.72
9281;BME280;4679;47.966;7.958;2023-04-06T13:14:37;97237.66;;;13.44;33.86
9281;BME280;4679;47.966;7.958;2023-04-06T13:16:39;97236.53;;;13.02;34.79
9281;BME280;4679;47.966;7.958;2023-04-06T13:18:43;97239.72;;;12.99;34.77
9281;BME280;4679;47.966;7.958;2023-04-06T13:20:46;97235.28;;;13.10;34.33
9281;BME280;4679;47.966;7.958;2023-04-06T13:22:48;97221.81;;;13.27;34.18
9281;BME280;4679;47.966;7.958;2023-04-06T13:24:49;97228.28;;;13.41;34.20
9281;BME280;4679;47.966;7.958;2023-04-06T13:26:51;97227.25;;;13.47;34.01
9281;BME280;4679;47.966;7.958;2023-04-06T13:28:53;97226.44;;;13.47;34.17
9281;BME280;4679;47.966;7.958;2023-04-06T13:30:58;97227.03;;;13.54;33.63
9281;BME280;4679;47.966;7.958;2023-04-06T13:33:00;97225.66;;;13.51;33.66
9281;BME280;4679;47.966;7.958;2023-04-06T13:35:05;97221.97;;;13.62;33.55
9281;BME280;4679;47.966;7.958;2023-04-06T13:37:07;97225.44;;;13.63;33.43
9281;BME280;4679;47.966;7.958;2023-04-06T13:39:09;97226.78;;;13.55;33.56
9281;BME280;4679;47.966;7.958;2023-04-06T13:41:17;97220.56;;;13.40;33.42
9281;BME280;4679;47.966;7.958;2023-04-06T13:43:21;97225.91;;;13.45;33.48
9281;BME280;4679;47.966;7.958;2023-04-06T13:45:23;97221.69;;;13.54;33.38
9281;BME280;4679;47.966;7.958;2023-04-06T13:47:24;97220.16;;;13.68;33.07
9281;BME280;4679;47.966;7.958;2023-04-06T13:49:26;97222.56;;;13.69;33.24
9281;BME280;4679;47.966;7.958;2023-04-06T13:51:29;97226.25;;;13.63;33.02
9281;BME280;4679;47.966;7.958;2023-04-06T13:53:32;97217.94;;;13.50;33.77
9281;BME280;4679;47.966;7.958;2023-04-06T13:55:34;97218.31;;;13.21;33.49
9281;BME280;4679;47.966;7.958;2023-04-06T13:57:36;97214.88;;;13.26;33.46
9281;BME280;4679;47.966;7.958;2023-04-06T13:59:38;97214.69;;;13.37;33.42
9281;BME280;4679;47.966;7.958;2023-04-06T14:01:40;97212.53;;;13.34;33.58
9281;BME280;4679;47.966;7.958;2023-04-06T14:03:41;97212.69;;;13.18;33.62
9281;BME280;4679;47.966;7.958;2023-04-06T14:05:47;97210.63;;;13.25;33.66
9281;BME280;4679;47.966;7.958;2023-04-06T14:07:50;97207.69;;;13.31;33.70
9281;BME280;4679;47.966;7.958;2023-04-06T14:09:52;97213.66;;;13.49;33.58
9281;BME280;4679;47.966;7.958;2023-04-06T14:11:54;97205.19;;;13.57;33.51
9281;BME280;4679;47.966;7.958;2023-04-06T14:13:55;97212.38;;;13.61;33.54
9281;BME280;4679;47.966;7.958;2023-04-06T14:15:57;97202.78;;;13.55;33.44
9281;BME280;4679;47.966;7.958;2023-04-06T14:17:59;97199.22;;;13.40;33.81
9281;BME280;4679;47.966;7.958;2023-04-06T14:20:00;97203.25;;;13.42;33.91
9281;BME280;4679;47.966;7.958;2023-04-06T14:22:03;97201.06;;;13.34;33.71
9281;BME280;4679;47.966;7.958;2023-04-06T14:24:06;97198.66;;;13.32;33.32
9281;BME280;4679;47.966;7.958;2023-04-06T14:26:08;97205.78;;;13.22;34.14
9281;BME280;4679;47.966;7.958;2023-04-06T14:28:10;97207.03;;;13.14;33.72
9281;BME280;4679;47.966;7.958;2023-04-06T14:30:12;97203.22;;;12.95;33.71
9281;BME280;4679;47.966;7.958;2023-04-06T14:32:14;97201.91;;;12.97;34.06
9281;BME280;4679;47.966;7.958;2023-04-06T14:34:17;97205.25;;;12.83;34.65
9281;BME280;4679;47.966;7.958;2023-04-06T14:36:18;97205.28;;;12.88;34.57
9281;BME280;4679;47.966;7.958;2023-04-06T14:38:20;97210.41;;;12.99;34.55
9281;BME280;4679;47.966;7.958;2023-04-06T14:40:23;97216.03;;;12.98;34.23
9281;BME280;4679;47.966;7.958;2023-04-06T14:42:25;97202.91;;;12.91;34.00
9281;BME280;4679;47.966;7.958;2023-04-06T14:44:26;97215.97;;;12.93;34.49
9281;BME280;4679;47.966;7.958;2023-04-06T14:46:28;97207.47;;;12.96;34.24
9281;BME280;4679;47.966;7.958;2023-04-06T14:48:30;97211.75;;;13.02;34.55
9281;BME280;4679;47.966;7.958;2023-04-06T14:50:32;97211.22;;;13.00;34.09
9281;BME280;4679;47.966;7.958;2023-04-06T14:52:33;97209.88;;;12.97;34.11
9281;BME280;4679;47.966;7.958;2023-04-06T14:54:35;97214.31;;;12.87;34.42
9281;BME280;4679;47.966;7.958;2023-04-06T14:56:38;97204.66;;;12.76;34.88
9281;BME280;4679;47.966;7.958;2023-04-06T14:58:40;97209.50;;;12.84;34.70
9281;BME280;4679;47.966;7.958;2023-04-06T15:00:41;97205.28;;;12.88;34.92
9281;BME280;4679;47.966;7.958;2023-04-06T15:02:43;97209.22;;;12.80;34.35
9281;BME280;4679;47.966;7.958;2023-04-06T15:04:44;97201.44;;;12.74;34.30
9281;BME280;4679;47.966;7.958;2023-04-06T15:06:46;97211.03;;;12.75;34.65
9281;BME280;4679;47.966;7.958;2023-04-06T15:08:48;97203.81;;;12.70;34.91
9281;BME280;4679;47.966;7.958;2023-04-06T15:10:51;97209.38;;;12.68;35.09
9281;BME280;4679;47.966;7.958;2023-04-06T15:12:56;97205.16;;;12.73;35.13
9281;BME280;4679;47.966;7.958;2023-04-06T15:14:57;97204.91;;;12.74;35.13
9281;BME280;4679;47.966;7.958;2023-04-06T15:17:01;97205.97;;;12.73;34.66
9281;BME280;4679;47.966;7.958;2023-04-06T15:19:02;97197.09;;;12.62;35.24
9281;BME280;4679;47.966;7.958;2023-04-06T15:21:04;97202.69;;;12.61;34.99
9281;BME280;4679;47.966;7.958;2023-04-06T15:23:06;97207.75;;;12.62;35.41
9281;BME280;4679;47.966;7.958;2023-04-06T15:25:08;97200.34;;;12.69;34.76
9281;BME280;4679;47.966;7.958;2023-04-06T15:27:10;97197.72;;;12.75;34.60
9281;BME280;4679;47.966;7.958;2023-04-06T15:29:13;97193.75;;;12.77;34.89
9281;BME280;4679;47.966;7.958;2023-04-06T15:31:15;97200.38;;;12.75;35.45
9281;BME280;4679;47.966;7.958;2023-04-06T15:33:17;97192.91;;;12.72;35.17
9281;BME280;4679;47.966;7.958;2023-04-06T15:35:18;97193.63;;;12.62;35.47
9281;BME280;4679;47.966;7.958;2023-04-06T15:37:20;97199.28;;;12.65;35.65
9281;BME280;4679;47.966;7.958;2023-04-06T15:39:22;97196.56;;;12.60;35.81
9281;BME280;4679;47.966;7.958;2023-04-06T15:41:25;97195.16;;;12.53;35.82
9281;BME280;4679;47.966;7.958;2023-04-06T15:43:27;97197.88;;;12.58;35.33
9281;BME280;4679;47.966;7.958;2023-04-06T15:45:30;97197.78;;;12.48;35.50
9281;BME280;4679;47.966;7.958;2023-04-06T15:47:32;97195.88;;;12.43;35.36
9281;BME280;4679;47.966;7.958;2023-04-06T15:49:34;97201.50;;;12.47;35.55
9281;BME280;4679;47.966;7.958;2023-04-06T15:51:36;97199.91;;;12.46;36.04
9281;BME280;4679;47.966;7.958;2023-04-06T15:53:37;97199.44;;;12.27;36.07
9281;BME280;4679;47.966;7.958;2023-04-06T15:55:39;97201.94;;;12.07;36.44
9281;BME280;4679;47.966;7.958;2023-04-06T15:57:41;97201.22;;;11.89;37.04
9281;BME280;4679;47.966;7.958;2023-04-06T15:59:42;97202.06;;;11.73;36.30
9281;BME280;4679;47.966;7.958;2023-04-06T16:01:46;97201.25;;;11.73;36.68
9281;BME280;4679;47.966;7.958;2023-04-06T16:03:47;97203.00;;;11.84;36.72
9281;BME280;4679;47.966;7.958;2023-04-06T16:05:49;97198.00;;;11.87;36.43
9281;BME280;4679;47.966;7.958;2023-04-06T16:07:51;97212.34;;;11.86;37.19
9281;BME280;4679;47.966;7.958;2023-04-06T16:09:53;97206.41;;;11.79;37.22
9281;BME280;4679;47.966;7.958;2023-04-06T16:11:54;97204.97;;;11.72;37.89
9281;BME280;4679;47.966;7.958;2023-04-06T16:13:57;97206.56;;;11.73;36.90
9281;BME280;4679;47.966;7.958;2023-04-06T16:15:58;97194.19;;;11.61;37.86
9281;BME280;4679;47.966;7.958;2023-04-06T16:18:02;97194.09;;;11.51;37.83
9281;BME280;4679;47.966;7.958;2023-04-06T16:20:04;97200.44;;;11.50;38.08
9281;BME280;4679;47.966;7.958;2023-04-06T16:22:06;97206.66;;;11.56;38.23
9281;BME280;4679;47.966;7.958;2023-04-06T16:24:08;97206.66;;;11.56;37.27
9281;BME280;4679;47.966;7.958;2023-04-06T16:26:10;97187.16;;;11.50;37.64
9281;BME280;4679;47.966;7.958;2023-04-06T16:28:13;97198.81;;;11.44;38.31
9281;BME280;4679;47.966;7.958;2023-04-06T16:30:15;97211.28;;;11.44;37.74
9281;BME280;4679;47.966;7.958;2023-04-06T16:32:16;97208.38;;;11.45;38.28
9281;BME280;4679;47.966;7.958;2023-04-06T16:34:19;97207.25;;;11.41;38.56
9281;BME280;4679;47.966;7.958;2023-04-06T16:36:21;97217.09;;;11.41;39.07
9281;BME280;4679;47.966;7.958;2023-04-06T16:38:23;97218.69;;;11.42;37.94
9281;BME280;4679;47.966;7.958;2023-04-06T16:40:29;97210.97;;;11.40;38.22
9281;BME280;4679;47.966;7.958;2023-04-06T16:42:31;97220.69;;;11.35;39.46
9281;BME280;4679;47.966;7.958;2023-04-06T16:44:32;97231.34;;;11.35;39.32
9281;BME280;4679;47.966;7.958;2023-04-06T16:46:36;97221.19;;;11.32;39.25
9281;BME280;4679;47.966;7.958;2023-04-06T16:48:38;97219.53;;;11.25;39.30
9281;BME280;4679;47.966;7.958;2023-04-06T16:50:41;97214.47;;;11.24;38.30
9281;BME280;4679;47.966;7.958;2023-04-06T16:52:43;97222.91;;;11.21;39.39
9281;BME280;4679;47.966;7.958;2023-04-06T16:54:45;97219.44;;;11.20;39.09
9281;BME280;4679;47.966;7.958;2023-04-06T16:56:46;97217.84;;;11.19;40.06
9281;BME280;4679;47.966;7.958;2023-04-06T16:58:48;97217.78;;;11.14;39.58
9281;BME280;4679;47.966;7.958;2023-04-06T17:00:50;97219.00;;;11.07;39.92
9281;BME280;4679;47.966;7.958;2023-04-06T17:02:51;97227.44;;;11.04;40.20
9281;BME280;4679;47.966;7.958;2023-04-06T17:04:53;97233.19;;;10.96;40.25
9281;BME280;4679;47.966;7.958;2023-04-06T17:06:56;97228.50;;;10.86;40.02
9281;BME280;4679;47.966;7.958;2023-04-06T17:08:58;97238.59;;;10.84;39.83
9281;BME280;4679;47.966;7.958;2023-04-06T17:11:00;97228.84;;;10.73;40.43
9281;BME280;4679;47.966;7.958;2023-04-06T17:13:02;97239.44;;;10.73;40.06
9281;BME280;4679;47.966;7.958;2023-04-06T17:15:06;97233.66;;;10.76;39.82
9281;BME280;4679;47.966;7.958;2023-04-06T17:17:08;97234.94;;;10.73;40.42
9281;BME280;4679;47.966;7.958;2023-04-06T17:19:10;97236.22;;;10.71;40.76
9281;BME280;4679;47.966;7.958;2023-04-06T17:21:12;97236.22;;;10.71;40.60
9281;BME280;4679;47.966;7.958;2023-04-06T17:23:17;97234.63;;;10.70;40.99
9281;BME280;4679;47.966;7.958;2023-04-06T17:25:20;97233.75;;;10.64;41.53
9281;BME280;4679;47.966;7.958;2023-04-06T17:27:22;97239.28;;;10.63;40.40
9281;BME280;4679;47.966;7.958;2023-04-06T17:29:25;97239.75;;;10.60;40.80
9281;BME280;4679;47.966;7.958;2023-04-06T17:31:27;97236.72;;;10.51;41.65
9281;BME280;4679;47.966;7.958;2023-04-06T17:33:29;97242.63;;;10.41;41.70
9281;BME280;4679;47.966;7.958;2023-04-06T17:35:32;97237.34;;;10.41;42.31